Time;durP1;ratioP1;P1;durP2;ratioP2;P2;SDS_P1;SDS_P2;PMS_P1;PMS_P2;Temp;Humidity;BMP_temperature;BMP_pressure;BME280_temperature;BME280_humidity;BME280_pressure;Samples;Min_cycle;Max_cycle;Signal;HPM_P1;HPM_P2
2021/03/05 07:36:16;;;;;;;48.48;29.90;;;;;;;1.26;80.90;97627.62;1883315;76;27812;-60
2021/03/05 07:38:49;;;;;;;27.22;20.25;;;;;;;1.20;80.96;97632.52;1770114;81;20888;-60
2021/03/05 07:41:20;;;;;;;27.60;18.50;;;;;;;1.25;80.99;97631.80;1764738;80;21594;-63
2021/03/05 07:43:50;;;;;;;24.10;18.37;;;;;;;1.31;81.02;97630.34;1837173;77;21002;-61
2021/03/05 07:46:20;;;;;;;23.00;18.02;;;;;;;1.37;80.92;97620.14;1864459;77;21491;-60
2021/03/05 07:48:52;;;;;;;24.72;19.00;;;;;;;1.43;80.82;97617.58;1851919;77;20890;-60
2021/03/05 07:51:20;;;;;;;24.52;19.75;;;;;;;1.49;80.81;97620.05;1779986;79;21561;-62
2021/03/05 07:53:53;;;;;;;23.80;18.37;;;;;;;1.59;80.81;97624.68;1817285;77;23512;-64
2021/03/05 07:56:44;;;;;;;22.20;17.50;;;;;;;1.67;80.61;97621.64;1825754;77;21053;-57
2021/03/05 07:59:39;;;;;;;23.27;17.40;;;;;;;1.77;80.54;97629.69;1810985;79;21146;-58
2021/03/05 08:02:08;;;;;;;22.95;17.80;;;;;;;1.79;80.44;97634.23;1783890;80;21761;-63
2021/03/05 08:04:59;;;;;;;23.20;17.40;;;;;;;1.85;80.33;97629.28;1784204;80;21515;-61
2021/03/05 08:07:33;;;;;;;22.48;17.05;;;;;;;1.93;80.08;97634.17;1812467;77;22654;-64
2021/03/05 08:10:03;;;;;;;20.72;15.90;;;;;;;1.88;79.77;97640.70;1783934;80;20916;-60
2021/03/05 08:12:42;;;;;;;21.50;16.10;;;;;;;1.89;79.73;97638.31;1784188;80;21371;-67
2021/03/05 08:15:14;;;;;;;16.82;13.35;;;;;;;1.95;79.54;97632.88;1784025;79;21537;-62
2021/03/05 08:17:49;;;;;;;16.65;13.75;;;;;;;1.98;79.28;97632.38;1782212;80;21523;-60
2021/03/05 08:20:24;;;;;;;18.80;14.18;;;;;;;1.98;79.03;97632.89;1782023;80;21032;-58
2021/03/05 08:23:04;;;;;;;17.52;13.88;;;;;;;1.97;79.05;97636.08;1782114;80;21546;-61
2021/03/05 08:25:39;;;;;;;15.95;13.62;;;;;;;1.98;79.11;97639.49;1782053;80;21543;-58
2021/03/05 08:28:36;;;;;;;17.15;14.63;;;;;;;1.99;79.03;97641.10;1775502;78;21003;-61
2021/03/05 08:31:27;;;;;;;15.85;13.75;;;;;;;2.01;78.89;97644.30;1776404;80;21563;-62
2021/03/05 08:34:03;;;;;;;16.87;13.60;;;;;;;2.05;78.93;97651.48;1763135;78;21191;-60
2021/03/05 08:36:46;;;;;;;19.12;14.63;;;;;;;2.08;78.82;97647.56;1762035;80;21023;-59
2021/03/05 08:39:25;;;;;;;17.37;14.00;;;;;;;2.05;78.82;97647.53;1764465;79;22294;-63
2021/03/05 08:42:32;;;;;;;16.75;14.45;;;;;;;2.07;78.76;97643.34;1778608;80;21604;-61
2021/03/05 08:45:29;;;;;;;17.45;13.88;;;;;;;2.09;78.68;97651.81;1784003;80;21521;-62
2021/03/05 08:48:02;;;;;;;18.12;13.53;;;;;;;2.14;78.57;97653.72;1784285;80;21552;-59
2021/03/05 08:50:36;;;;;;;16.95;13.50;;;;;;;2.11;78.29;97657.66;1779614;79;21054;-60
2021/03/05 08:53:07;;;;;;;19.12;15.15;;;;;;;2.09;78.36;97659.74;1803507;78;21390;-59
2021/03/05 08:55:37;;;;;;;20.65;15.93;;;;;;;2.09;78.42;97666.34;1722384;81;20998;-59
2021/03/05 08:58:19;;;;;;;17.70;14.23;;;;;;;2.09;78.37;97666.34;1727467;81;21231;-59
2021/03/05 09:00:53;;;;;;;15.70;13.25;;;;;;;2.15;78.37;97677.77;1698498;82;21167;-59
2021/03/05 09:03:22;;;;;;;16.77;14.05;;;;;;;2.15;78.35;97677.25;1710008;84;21512;-60
2021/03/05 09:05:51;;;;;;;14.63;11.38;;;;;;;2.15;78.05;97680.41;1707657;83;22271;-61
2021/03/05 09:08:25;;;;;;;13.40;11.83;;;;;;;2.15;78.02;97687.81;1700307;83;21224;-59
2021/03/05 09:13:50;;;;;;;12.47;11.18;;;;;;;2.17;78.06;97689.69;1815715;78;22873;-59
2021/03/05 09:16:24;;;;;;;15.80;11.73;;;;;;;2.15;78.03;97687.02;1728053;82;21007;-60
2021/03/05 09:18:55;;;;;;;13.38;11.48;;;;;;;2.12;78.11;97689.62;1728542;83;21380;-59
2021/03/05 09:21:23;;;;;;;16.42;12.15;;;;;;;2.12;78.04;97692.80;1743501;81;21533;-60
2021/03/05 09:23:53;;;;;;;13.15;11.75;;;;;;;2.13;78.14;97690.42;1729349;83;21574;-63
2021/03/05 09:26:21;;;;;;;13.65;11.00;;;;;;;2.16;78.07;97698.68;1660331;81;21180;-60
2021/03/05 09:28:56;;;;;;;12.82;11.03;;;;;;;2.19;78.12;97698.72;1715251;81;21567;-60
2021/03/05 09:31:26;;;;;;;12.78;10.85;;;;;;;2.22;78.15;97696.89;1714433;82;21881;-60
2021/03/05 09:33:55;;;;;;;15.80;12.88;;;;;;;2.24;78.11;97696.92;1713788;82;21050;-61
2021/03/05 09:36:25;;;;;;;14.53;12.43;;;;;;;2.24;78.10;97694.28;1708758;82;20943;-58
2021/03/05 09:39:03;;;;;;;16.73;13.83;;;;;;;2.26;78.10;97690.87;1740738;81;21605;-64
2021/03/05 09:41:31;;;;;;;15.88;14.05;;;;;;;2.26;78.13;97688.23;1711048;83;21608;-61
2021/03/05 09:44:08;;;;;;;13.95;12.45;;;;;;;2.30;78.07;97692.00;1722988;82;22112;-59
2021/03/05 09:46:39;;;;;;;14.10;12.60;;;;;;;2.37;78.00;97698.42;1707804;82;20991;-61
2021/03/05 09:49:26;;;;;;;17.77;14.55;;;;;;;2.40;77.91;97698.72;1703617;84;21078;-60
2021/03/05 09:51:54;;;;;;;15.75;13.08;;;;;;;2.42;77.74;97701.94;1703667;84;21117;-61
2021/03/05 09:54:40;;;;;;;15.30;13.22;;;;;;;2.44;77.73;97709.10;1703474;84;20958;-61
2021/03/05 09:57:10;;;;;;;15.80;12.15;;;;;;;2.46;77.75;97706.20;1713061;82;22114;-60
2021/03/05 09:59:49;;;;;;;15.78;13.93;;;;;;;2.48;77.64;97703.59;1688608;82;21611;-60
2021/03/05 10:02:23;;;;;;;13.50;11.95;;;;;;;2.51;77.43;97716.33;1713444;82;21632;-64
2021/03/05 10:04:52;;;;;;;14.53;13.00;;;;;;;2.48;77.41;97713.36;1704912;82;21240;-60
2021/03/05 10:07:20;;;;;;;15.65;13.35;;;;;;;2.50;77.42;97714.72;1722797;83;22257;-61
2021/03/05 10:09:48;;;;;;;13.00;11.53;;;;;;;2.51;77.34;97716.84;1736099;81;22137;-59
2021/03/05 10:12:20;;;;;;;16.15;11.65;;;;;;;2.47;77.28;97707.27;1713488;83;21513;-60
2021/03/05 10:14:48;;;;;;;13.72;11.80;;;;;;;2.47;77.26;97709.91;1695564;83;21172;-59
2021/03/05 10:17:19;;;;;;;11.43;10.23;;;;;;;2.44;77.32;97713.06;1697182;83;21501;-60
2021/03/05 10:19:49;;;;;;;12.63;11.30;;;;;;;2.44;77.19;97712.27;1713854;83;21557;-63
2021/03/05 10:22:16;;;;;;;12.23;10.28;;;;;;;2.43;77.23;97711.45;1743477;82;23519;-59
2021/03/05 10:24:47;;;;;;;11.73;10.53;;;;;;;2.41;77.39;97709.58;1742934;82;21131;-57
2021/03/05 10:27:19;;;;;;;11.90;10.03;;;;;;;2.37;77.27;97707.67;1720523;82;20972;-58
2021/03/05 10:32:43;;;;;;;11.05;9.93;;;;;;;2.45;77.48;97713.33;1863466;76;22721;-62
2021/03/05 10:35:15;;;;;;;11.63;10.08;;;;;;;2.43;77.49;97714.61;1841301;76;21157;-60
2021/03/05 10:37:44;;;;;;;12.25;10.10;;;;;;;2.48;77.33;97716.00;1822388;77;21348;-63
2021/03/05 10:40:14;;;;;;;12.10;10.58;;;;;;;2.48;77.27;97719.45;1773173;80;21560;-59
2021/03/05 10:42:42;;;;;;;14.47;11.05;;;;;;;2.45;77.28;97725.77;1778658;79;20942;-61
2021/03/05 10:45:11;;;;;;;11.88;10.55;;;;;;;2.44;77.46;97734.22;1795790;79;21623;-61
2021/03/05 10:47:39;;;;;;;11.40;10.20;;;;;;;2.44;77.41;97731.57;1777118;80;21571;-58
2021/03/05 10:50:09;;;;;;;11.85;9.95;;;;;;;2.45;77.47;97723.91;1813713;79;22565;-60
2021/03/05 10:52:37;;;;;;;11.88;10.08;;;;;;;2.48;77.49;97722.09;1792831;79;21300;-61
2021/03/05 10:55:12;;;;;;;11.53;10.08;;;;;;;2.50;77.34;97714.72;1781075;80;21005;-60
2021/03/05 10:57:41;;;;;;;12.37;10.23;;;;;;;2.50;77.29;97712.59;1784061;79;21193;-60
2021/03/05 11:00:12;;;;;;;11.95;10.08;;;;;;;2.47;77.50;97719.16;1791918;79;21202;-58
2021/03/05 11:02:40;;;;;;;10.78;9.45;;;;;;;2.45;77.58;97723.91;1813640;79;21181;-60
2021/03/05 11:05:10;;;;;;;10.70;9.33;;;;;;;2.43;77.52;97716.74;1814272;79;21181;-58
2021/03/05 11:07:38;;;;;;;11.20;9.50;;;;;;;2.41;77.49;97714.87;1814314;79;21586;-60
2021/03/05 11:10:07;;;;;;;10.08;8.50;;;;;;;2.40;77.58;97716.45;1814789;79;21588;-58
2021/03/05 11:12:35;;;;;;;11.63;8.28;;;;;;;2.34;77.58;97717.41;1781882;80;21181;-61
2021/03/05 11:15:05;;;;;;;8.83;6.55;;;;;;;2.19;77.78;97711.38;1813648;78;21509;-62
2021/03/05 11:17:33;;;;;;;7.10;6.40;;;;;;;2.05;78.00;97711.45;1802050;79;21064;-60
2021/03/05 11:20:04;;;;;;;8.38;5.70;;;;;;;1.96;78.23;97704.98;1803634;79;21563;-57
2021/03/05 11:22:32;;;;;;;7.22;5.33;;;;;;;1.94;78.32;97709.70;1812947;79;21193;-57
2021/03/05 11:25:00;;;;;;;6.78;5.28;;;;;;;1.88;78.35;97718.09;1751793;81;21506;-57
2021/03/05 11:27:28;;;;;;;6.28;5.22;;;;;;;1.82;78.52;97723.00;1801833;77;21986;-62
2021/03/05 11:29:56;;;;;;;5.58;4.92;;;;;;;1.82;78.59;97723.52;1828449;77;21160;-61
2021/03/05 11:32:27;;;;;;;6.05;4.80;;;;;;;1.85;78.80;97719.08;1785129;80;21532;-60
2021/03/05 11:34:56;;;;;;;5.92;4.72;;;;;;;1.86;78.86;97725.98;1778789;80;21579;-60
2021/03/05 11:37:24;;;;;;;5.95;4.70;;;;;;;1.86;78.86;97743.14;1852497;77;21065;-61
2021/03/05 11:39:53;;;;;;;5.15;4.50;;;;;;;1.83;78.89;97739.66;1842572;77;21130;-62
2021/03/05 11:42:21;;;;;;;6.65;4.92;;;;;;;1.82;78.94;97736.20;1827094;77;21551;-59
2021/03/05 11:44:49;;;;;;;6.58;4.95;;;;;;;1.81;78.95;97731.98;1849849;77;20966;-59
2021/03/05 11:47:17;;;;;;;6.40;5.00;;;;;;;1.83;78.90;97739.14;1851854;77;21536;-58
2021/03/05 11:49:46;;;;;;;7.35;5.37;;;;;;;1.88;78.88;97737.91;1851852;77;20986;-60
2021/03/05 11:52:14;;;;;;;5.15;4.60;;;;;;;1.89;78.96;97749.24;1830030;77;22623;-58
2021/03/05 11:54:42;;;;;;;6.15;4.70;;;;;;;1.83;78.88;97744.42;1818425;79;21456;-58
2021/03/05 11:57:10;;;;;;;5.55;4.42;;;;;;;1.79;78.83;97744.59;1818512;79;21136;-58
2021/03/05 11:59:38;;;;;;;4.60;3.70;;;;;;;1.74;79.01;97742.42;1828792;77;21556;-58
2021/03/05 12:02:06;;;;;;;6.12;4.05;;;;;;;1.66;78.96;97733.05;1851750;77;21152;-60
2021/03/05 12:04:35;;;;;;;5.72;5.10;;;;;;;1.59;79.13;97751.39;1821875;77;21166;-59
2021/03/05 12:07:04;;;;;;;6.00;4.92;;;;;;;1.53;79.28;97763.70;1843589;77;21973;-59
2021/03/05 12:09:33;;;;;;;7.75;6.12;;;;;;;1.58;79.35;97763.02;1776129;80;21210;-58
2021/03/05 12:12:02;;;;;;;6.60;5.30;;;;;;;1.64;79.42;97759.41;1790419;79;21486;-58
2021/03/05 12:14:32;;;;;;;8.00;6.12;;;;;;;1.64;79.30;97763.37;1811962;79;21175;-61
2021/03/05 12:17:00;;;;;;;7.12;6.37;;;;;;;1.58;79.27;97764.33;1813693;78;21414;-59
2021/03/05 12:19:28;;;;;;;7.08;6.17;;;;;;;1.55;79.41;97766.92;1814067;79;21149;-61
2021/03/05 12:21:57;;;;;;;6.75;5.87;;;;;;;1.55;79.39;97772.72;1814435;79;21549;-59
2021/03/05 12:24:24;;;;;;;7.62;6.35;;;;;;;1.55;79.49;97768.76;1776449;80;21470;-60
2021/03/05 12:26:53;;;;;;;7.15;5.65;;;;;;;1.56;79.47;97767.70;1818028;79;21595;-60
2021/03/05 12:29:21;;;;;;;6.33;5.58;;;;;;;1.58;79.29;97772.25;1818224;79;22187;-57
2021/03/05 12:31:49;;;;;;;5.53;4.90;;;;;;;1.59;79.25;97773.83;1816140;79;21638;-59
2021/03/05 12:34:17;;;;;;;6.80;5.00;;;;;;;1.60;79.16;97778.09;1815372;79;22174;-62
2021/03/05 12:36:46;;;;;;;6.70;4.58;;;;;;;1.61;79.12;97788.91;1815335;79;21583;-60
2021/03/05 12:39:14;;;;;;;6.12;5.50;;;;;;;1.63;78.94;97793.43;1815636;78;21114;-62
2021/03/05 12:41:42;;;;;;;10.38;6.35;;;;;;;1.67;79.07;97789.30;1815749;79;22034;-58
2021/03/05 12:44:11;;;;;;;8.55;5.80;;;;;;;1.69;79.11;97789.86;1816170;79;21484;-57
2021/03/05 12:46:39;;;;;;;8.30;6.40;;;;;;;1.68;78.81;97794.84;1816352;79;21477;-58
2021/03/05 12:49:08;;;;;;;6.92;6.22;;;;;;;1.63;78.78;97794.75;1816285;79;21539;-63
2021/03/05 12:51:37;;;;;;;7.58;6.70;;;;;;;1.59;78.91;97795.77;1816474;79;20979;-61
2021/03/05 12:54:05;;;;;;;8.03;6.83;;;;;;;1.56;78.96;97796.73;1816238;79;21812;-63
2021/03/05 12:56:33;;;;;;;8.63;6.03;;;;;;;1.51;79.03;97809.33;1815869;79;21356;-62
2021/03/05 12:59:02;;;;;;;8.53;6.17;;;;;;;1.48;78.99;97802.42;1836929;76;21188;-60
2021/03/05 13:01:30;;;;;;;8.83;6.28;;;;;;;1.42;79.05;97803.34;1848320;77;21575;-58
2021/03/05 13:03:58;;;;;;;8.50;6.10;;;;;;;1.39;79.23;97797.51;1848443;77;21615;-59
2021/03/05 13:06:27;;;;;;;5.58;4.78;;;;;;;1.41;79.34;97801.77;1848290;77;22758;-59
2021/03/05 13:08:58;;;;;;;7.53;5.30;;;;;;;1.45;79.26;97814.77;1848498;77;21192;-61
2021/03/05 13:11:28;;;;;;;8.63;5.92;;;;;;;1.44;79.24;97825.05;1848383;77;21243;-62
2021/03/05 13:13:57;;;;;;;10.58;5.10;;;;;;;1.38;79.16;97824.95;1848864;77;21184;-60
2021/03/05 14:43:04;;;;;;;18.98;10.65;;;;;;;-0.08;81.24;97941.58;1847737;76;28381;-62
2021/03/05 14:45:32;;;;;;;9.00;6.40;;;;;;;-0.12;81.12;97946.98;1818046;79;20899;-60
2021/03/05 14:48:00;;;;;;;7.25;4.90;;;;;;;-0.06;81.07;97943.47;1818051;79;22134;-58
2021/03/05 14:50:29;;;;;;;8.10;5.58;;;;;;;-0.01;81.04;97946.24;1817988;79;21521;-58
2021/03/05 14:52:59;;;;;;;8.03;5.17;;;;;;;0.05;80.99;97949.79;1818030;79;20971;-60
2021/03/05 14:55:27;;;;;;;8.63;5.17;;;;;;;0.12;80.90;97947.87;1818117;78;20998;-60
2021/03/05 14:57:55;;;;;;;8.08;6.30;;;;;;;0.19;80.69;97951.75;1787030;79;21571;-59
2021/03/05 15:00:24;;;;;;;13.48;8.53;;;;;;;0.23;80.55;97951.58;1817894;78;21896;-61
2021/03/05 15:02:52;;;;;;;11.22;8.08;;;;;;;0.29;80.56;97961.20;1818020;79;21465;-59
2021/03/05 15:05:29;;;;;;;11.03;8.13;;;;;;;0.33;80.52;97967.11;1818075;79;20902;-64
2021/03/05 15:07:57;;;;;;;15.20;9.38;;;;;;;0.39;80.47;97969.37;1817414;79;21572;-62
2021/03/05 15:10:26;;;;;;;15.30;8.00;;;;;;;0.49;80.44;97974.90;1817235;79;21583;-62
2021/03/05 15:12:54;;;;;;;14.63;7.30;;;;;;;0.56;80.34;97981.68;1817066;79;21472;-59
2021/03/05 15:15:26;;;;;;;9.03;5.50;;;;;;;0.63;80.12;97989.48;1816977;79;20986;-61
2021/03/05 15:17:57;;;;;;;10.30;6.95;;;;;;;0.61;79.95;97986.27;1817064;79;21152;-59
2021/03/05 15:20:26;;;;;;;14.40;9.10;;;;;;;0.59;79.93;97981.71;1817043;78;21164;-60
2021/03/05 15:22:54;;;;;;;10.55;7.00;;;;;;;0.60;79.99;97988.61;1817531;79;21069;-58
2021/03/05 15:25:22;;;;;;;10.70;6.80;;;;;;;0.64;79.98;97993.70;1818694;79;22012;-59
2021/03/05 15:27:50;;;;;;;15.80;9.08;;;;;;;0.63;79.87;97992.11;1818037;78;21449;-61
2021/03/05 15:30:20;;;;;;;13.10;7.97;;;;;;;0.64;79.93;97992.38;1817982;79;20990;-60
2021/03/05 15:32:48;;;;;;;12.85;7.72;;;;;;;0.63;79.89;97991.61;1817967;78;20986;-60
2021/03/05 15:35:17;;;;;;;14.33;8.85;;;;;;;0.64;79.96;97990.56;1818078;79;21544;-60
2021/03/05 15:37:45;;;;;;;15.93;10.15;;;;;;;0.68;79.92;98000.93;1818012;79;22072;-58
2021/03/05 15:40:15;;;;;;;16.15;11.43;;;;;;;0.71;79.78;97998.89;1817939;79;21151;-62
2021/03/05 15:42:43;;;;;;;16.12;11.18;;;;;;;0.74;79.70;98004.50;1823018;78;21469;-57
2021/03/05 15:45:13;;;;;;;18.37;10.53;;;;;;;0.73;79.55;98008.16;1824606;78;21465;-62
2021/03/05 15:47:41;;;;;;;16.20;9.90;;;;;;;0.72;79.46;98013.16;1824704;78;21073;-59
2021/03/05 15:50:14;;;;;;;12.63;9.20;;;;;;;0.74;79.42;98022.95;1824077;78;23464;-58
2021/03/05 15:52:42;;;;;;;13.45;9.00;;;;;;;0.74;79.36;98021.64;1793764;78;21176;-60
2021/03/05 15:55:11;;;;;;;12.37;8.73;;;;;;;0.73;79.33;98025.30;1822850;78;21591;-63
2021/03/05 15:57:39;;;;;;;13.45;8.13;;;;;;;0.71;79.08;98021.30;1822748;78;21188;-61
2021/03/05 16:00:09;;;;;;;12.28;8.13;;;;;;;0.67;78.86;98028.34;1822810;78;21575;-59
2021/03/05 16:02:41;;;;;;;13.30;7.10;;;;;;;0.71;78.84;98031.31;1822908;78;22105;-60
2021/03/05 16:05:11;;;;;;;12.90;8.70;;;;;;;0.71;78.71;98039.76;1822705;78;21594;-63
2021/03/05 16:07:39;;;;;;;13.80;9.05;;;;;;;0.69;78.58;98039.45;1823919;78;20923;-62
2021/03/05 16:10:09;;;;;;;13.05;7.42;;;;;;;0.68;78.59;98043.11;1823986;78;21002;-63
2021/03/05 16:12:37;;;;;;;10.55;7.05;;;;;;;0.70;78.52;98049.50;1824065;78;21531;-60
2021/03/05 16:15:10;;;;;;;14.07;9.18;;;;;;;0.72;78.42;98047.43;1824100;78;22321;-59
2021/03/05 16:17:40;;;;;;;15.68;9.38;;;;;;;0.74;78.41;98057.23;1822417;78;21508;-62
2021/03/05 16:20:11;;;;;;;13.35;8.00;;;;;;;0.74;78.41;98058.55;1823991;78;21413;-60
2021/03/05 16:22:39;;;;;;;15.72;9.73;;;;;;;0.75;78.38;98061.48;1823981;78;20974;-63
2021/03/05 16:25:10;;;;;;;17.60;11.53;;;;;;;0.75;78.26;98073.36;1824108;78;21120;-62
2021/03/05 16:27:38;;;;;;;14.45;9.68;;;;;;;0.78;78.22;98081.33;1824030;78;21312;-59
2021/03/05 16:30:08;;;;;;;13.15;8.55;;;;;;;0.78;77.98;98084.75;1824151;78;21160;-61
2021/03/05 16:32:36;;;;;;;13.48;7.90;;;;;;;0.76;77.90;98087.31;1824102;78;21007;-61
2021/03/05 16:35:06;;;;;;;13.15;7.95;;;;;;;0.77;77.61;98091.07;1824065;78;21457;-58
2021/03/05 16:37:34;;;;;;;16.60;9.50;;;;;;;0.78;77.32;98092.66;1824020;78;21465;-62
2021/03/05 16:40:05;;;;;;;11.43;6.87;;;;;;;0.76;77.01;98102.63;1824082;78;22177;-60
2021/03/05 16:42:33;;;;;;;12.20;8.30;;;;;;;0.72;76.46;98104.11;1822362;78;20942;-63
2021/03/05 16:45:03;;;;;;;12.78;7.50;;;;;;;0.64;76.38;98109.69;1821476;78;20928;-60
2021/03/05 16:47:31;;;;;;;11.20;7.25;;;;;;;0.60;76.12;98111.17;1821390;78;21073;-59
2021/03/05 16:49:59;;;;;;;15.63;7.58;;;;;;;0.55;76.03;98115.80;1821494;78;20998;-61
2021/03/05 16:52:28;;;;;;;11.97;7.25;;;;;;;0.53;76.01;98121.00;1821370;78;22341;-58
2021/03/05 16:54:56;;;;;;;12.37;7.03;;;;;;;0.52;75.89;98131.24;1821336;78;21145;-61
2021/03/05 16:57:25;;;;;;;11.57;7.15;;;;;;;0.49;75.77;98140.93;1821538;78;20954;-61
2021/03/05 16:59:54;;;;;;;11.35;6.53;;;;;;;0.47;75.36;98140.36;1821389;78;21446;-62
2021/03/05 17:02:22;;;;;;;12.13;6.60;;;;;;;0.45;75.21;98143.70;1821361;78;21458;-58
